Time;durP1;ratioP1;P1;durP2;ratioP2;P2;SDS_P1;SDS_P2;PMS_P1;PMS_P2;Temp;Humidity;BMP_temperature;BMP_pressure;BME280_temperature;BME280_humidity;BME280_pressure;Samples;Min_cycle;Max_cycle;Signal;HPM_P1;HPM_P2
2021/04/07 00:03:39;;;;;;;0.00;0.00;;;2.40;99.90;;;;;;10525316;28;20055;-45
2021/04/07 00:09:01;;;;;;;0.38;0.10;;;2.10;99.90;;;;;;10527596;28;20165;-45
2021/04/07 00:14:22;;;;;;;2.63;0.38;;;1.90;99.90;;;;;;10525407;28;20047;-45
2021/04/07 00:19:43;;;;;;;1.35;0.03;;;1.90;99.90;;;;;;10526544;28;20035;-45
2021/04/07 00:25:05;;;;;;;3.03;0.20;;;1.80;99.90;;;;;;10525159;28;20028;-45
2021/04/07 00:30:30;;;;;;;0.43;0.10;;;1.80;99.90;;;;;;10530636;28;20081;-45
2021/04/07 00:35:51;;;;;;;0.25;0.00;;;1.80;99.90;;;;;;10525981;28;20120;-45
2021/04/07 00:41:12;;;;;;;0.10;0.05;;;1.80;99.90;;;;;;10518306;28;20478;-45
2021/04/07 00:46:35;;;;;;;0.08;0.00;;;1.80;99.90;;;;;;10524724;28;20039;-45
2021/04/07 00:51:57;;;;;;;0.00;0.00;;;1.80;99.90;;;;;;10523626;28;20028;-45
2021/04/07 00:57:18;;;;;;;0.25;0.00;;;1.80;99.90;;;;;;10523460;28;20048;-45
2021/04/07 01:02:40;;;;;;;0.68;0.10;;;1.80;99.90;;;;;;10531993;28;21123;-45
2021/04/07 01:08:01;;;;;;;1.00;0.20;;;1.90;99.90;;;;;;10523805;28;20430;-45
2021/04/07 01:13:22;;;;;;;0.35;0.15;;;1.80;99.90;;;;;;10523731;28;20057;-45
2021/04/07 01:18:43;;;;;;;0.43;0.10;;;1.80;99.90;;;;;;10526417;28;20035;-45
2021/04/07 01:24:10;;;;;;;2.60;0.10;;;1.90;99.90;;;;;;10528508;28;20039;-45
2021/04/07 01:29:31;;;;;;;1.65;0.22;;;2.00;99.90;;;;;;10511777;28;20034;-45
2021/04/07 01:34:52;;;;;;;0.28;0.10;;;2.10;99.90;;;;;;10525456;28;20118;-45
2021/04/07 01:40:15;;;;;;;0.35;0.10;;;2.10;99.90;;;;;;10525554;28;20030;-45
2021/04/07 01:45:37;;;;;;;0.65;0.20;;;1.90;99.90;;;;;;10526626;28;20028;-45
2021/04/07 01:50:59;;;;;;;0.40;0.15;;;1.80;99.90;;;;;;10524852;28;20036;-45
2021/04/07 01:56:19;;;;;;;5.07;0.20;;;1.90;99.90;;;;;;10510749;28;20059;-45
2021/04/07 02:01:41;;;;;;;0.57;0.32;;;1.90;99.90;;;;;;10511035;28;20046;-45
2021/04/07 02:07:12;;;;;;;5.32;0.13;;;1.90;99.90;;;;;;10532128;28;20500;-45
2021/04/07 02:12:33;;;;;;;0.20;0.20;;;1.90;99.90;;;;;;10534809;28;20486;-46
2021/04/07 02:17:54;;;;;;;0.52;0.20;;;1.70;99.90;;;;;;10532917;28;20042;-45
2021/04/07 02:23:15;;;;;;;0.63;0.05;;;1.70;99.90;;;;;;10530914;28;20119;-45
2021/04/07 02:28:36;;;;;;;0.65;0.13;;;1.70;99.90;;;;;;10532001;28;20438;-45
2021/04/07 02:33:57;;;;;;;0.25;0.08;;;1.70;99.90;;;;;;10533386;28;20164;-45
2021/04/07 02:39:18;;;;;;;0.47;0.15;;;1.70;99.90;;;;;;10530377;27;20043;-45
2021/04/07 02:44:39;;;;;;;2.10;0.20;;;1.90;99.90;;;;;;10536704;28;20040;-45
2021/04/07 02:50:01;;;;;;;0.30;0.30;;;2.20;99.90;;;;;;10525851;28;20044;-45
2021/04/07 02:55:21;;;;;;;0.28;0.10;;;2.30;99.90;;;;;;10527974;28;20067;-45
2021/04/07 03:00:42;;;;;;;0.85;0.20;;;2.40;99.90;;;;;;10509755;28;20044;-45
2021/04/07 03:06:04;;;;;;;7.15;0.15;;;2.40;99.90;;;;;;10482465;28;20089;-45
2021/04/07 03:11:25;;;;;;;2.63;0.28;;;2.50;99.90;;;;;;10485501;28;20048;-45
2021/04/07 03:16:46;;;;;;;0.32;0.10;;;2.60;99.90;;;;;;10487836;28;20052;-46
2021/04/07 03:22:07;;;;;;;0.93;0.30;;;2.50;99.90;;;;;;10485366;28;20033;-46
2021/04/07 03:27:28;;;;;;;8.02;0.20;;;2.30;99.90;;;;;;10492694;28;20401;-46
2021/04/07 03:32:49;;;;;;;2.58;0.20;;;2.40;99.90;;;;;;10483761;28;20036;-45
2021/04/07 03:38:10;;;;;;;6.90;0.35;;;2.30;99.90;;;;;;10488922;28;20047;-45
2021/04/07 03:43:31;;;;;;;0.05;0.00;;;2.30;99.90;;;;;;10484526;28;20150;-45
2021/04/07 03:48:52;;;;;;;0.85;0.20;;;2.20;99.90;;;;;;10484786;28;20139;-46
2021/04/07 03:54:13;;;;;;;0.00;0.00;;;2.10;99.90;;;;;;10483405;28;20047;-46
2021/04/07 03:59:34;;;;;;;0.30;0.08;;;2.10;99.90;;;;;;10495283;28;20044;-46
2021/04/07 04:04:55;;;;;;;0.52;0.10;;;1.90;99.90;;;;;;10521937;28;20097;-46
2021/04/07 04:10:18;;;;;;;2.10;0.28;;;1.90;99.90;;;;;;10523281;28;20833;-46
2021/04/07 04:15:39;;;;;;;1.95;0.40;;;1.90;99.90;;;;;;10525981;28;20047;-46
2021/04/07 04:21:00;;;;;;;0.15;0.00;;;1.90;99.90;;;;;;10513203;28;20036;-46
2021/04/07 04:26:20;;;;;;;0.22;0.10;;;1.80;99.90;;;;;;10523008;28;20051;-46
2021/04/07 04:31:41;;;;;;;0.60;0.15;;;1.70;99.90;;;;;;10507700;28;20039;-46
2021/04/07 04:37:02;;;;;;;0.43;0.22;;;1.60;99.90;;;;;;10510118;28;20062;-46
2021/04/07 04:42:23;;;;;;;1.23;0.22;;;1.60;99.90;;;;;;10513209;28;20411;-46
2021/04/07 04:47:44;;;;;;;0.82;0.25;;;1.60;99.90;;;;;;10522150;28;20032;-47
2021/04/07 04:53:05;;;;;;;0.22;0.20;;;1.60;99.90;;;;;;10525102;28;20431;-47
2021/04/07 04:58:26;;;;;;;0.77;0.75;;;1.60;99.90;;;;;;10518768;28;20497;-47
2021/04/07 05:03:47;;;;;;;0.20;0.20;;;1.60;99.90;;;;;;10520037;28;20642;-47
2021/04/07 05:09:08;;;;;;;2.38;0.10;;;1.80;99.90;;;;;;10515649;28;20046;-47
2021/04/07 05:14:29;;;;;;;1.27;0.38;;;2.20;99.90;;;;;;10522296;28;20119;-47
2021/04/07 05:19:50;;;;;;;0.00;0.00;;;2.40;99.90;;;;;;10525760;28;20082;-47
2021/04/07 05:25:12;;;;;;;12.80;0.40;;;2.70;99.90;;;;;;10521818;28;20431;-48
2021/04/07 05:36:15;;;;;;;1.27;0.28;;;3.10;99.90;;;;;;10521312;28;20043;-49
2021/04/07 05:41:36;;;;;;;5.95;0.35;;;3.40;99.90;;;;;;10525200;28;20040;-49
2021/04/07 05:46:57;;;;;;;8.75;1.27;;;3.70;99.90;;;;;;10520810;28;20059;-49
2021/04/07 05:52:18;;;;;;;1.60;0.50;;;3.90;99.90;;;;;;10512365;28;20037;-49
2021/04/07 05:57:39;;;;;;;5.63;0.75;;;4.00;99.90;;;;;;10497442;28;20047;-48
2021/04/07 06:03:03;;;;;;;0.40;0.17;;;4.00;99.90;;;;;;10514443;28;20052;-48
2021/04/07 06:08:23;;;;;;;3.00;0.63;;;4.20;99.90;;;;;;10514689;28;20131;-48
2021/04/07 06:13:45;;;;;;;0.60;0.60;;;4.40;99.90;;;;;;10515759;28;21399;-48
2021/04/07 06:19:06;;;;;;;3.45;0.65;;;4.50;99.90;;;;;;10511913;28;20044;-48
2021/04/07 06:24:27;;;;;;;2.92;0.50;;;4.50;99.90;;;;;;10514890;28;20036;-48
2021/04/07 06:29:48;;;;;;;1.65;0.38;;;4.50;99.90;;;;;;10515703;28;20112;-48
2021/04/07 06:35:10;;;;;;;2.58;0.70;;;4.60;99.90;;;;;;10515040;28;20728;-48
2021/04/07 06:40:32;;;;;;;4.65;0.95;;;4.60;99.90;;;;;;10512588;28;20123;-48
2021/04/07 06:45:54;;;;;;;5.80;0.98;;;4.70;99.90;;;;;;10511756;28;20488;-48
2021/04/07 06:51:18;;;;;;;5.88;0.93;;;4.70;99.90;;;;;;10516519;28;20059;-48
2021/04/07 06:56:39;;;;;;;2.10;0.52;;;4.50;99.90;;;;;;10525172;28;20040;-48
2021/04/07 07:02:00;;;;;;;0.13;0.13;;;4.40;99.90;;;;;;10517260;28;20047;-48
2021/04/07 07:07:21;;;;;;;5.07;0.40;;;4.30;99.90;;;;;;10517080;28;20043;-48
2021/04/07 07:12:45;;;;;;;1.42;0.40;;;4.40;99.90;;;;;;10520063;28;20127;-48
2021/04/07 07:18:07;;;;;;;1.88;0.43;;;4.40;99.90;;;;;;10508050;28;20177;-48
2021/04/07 07:23:30;;;;;;;1.35;0.50;;;4.40;99.90;;;;;;10522454;28;20055;-48
2021/04/07 07:28:55;;;;;;;5.78;1.08;;;4.60;99.90;;;;;;10523062;28;20044;-48
2021/04/07 07:34:25;;;;;;;6.95;0.80;;;4.80;99.90;;;;;;10525561;28;20032;-48
2021/04/07 07:39:45;;;;;;;;;;;5.20;99.90;;;;;;10525539;28;20042;-48
2021/04/07 07:45:07;;;;;;;7.60;2.13;;;5.40;99.90;;;;;;10526087;28;19919;-47
2021/04/07 07:50:48;;;;;;;2.92;0.95;;;5.60;99.90;;;;;;10523728;28;20036;-47
2021/04/07 07:56:09;;;;;;;7.53;4.30;;;5.60;99.90;;;;;;10509889;28;20051;-47
2021/04/07 08:01:41;;;;;;;8.75;1.27;;;5.70;99.90;;;;;;10522712;28;20436;-47
2021/04/07 08:07:02;;;;;;;5.45;0.77;;;5.60;99.90;;;;;;10524535;28;20553;-47
2021/04/07 08:12:23;;;;;;;2.15;0.77;;;5.60;99.90;;;;;;10522816;28;20477;-48
2021/04/07 08:17:44;;;;;;;15.27;1.17;;;5.70;99.90;;;;;;10526683;28;20127;-48
2021/04/07 08:23:08;;;;;;;4.90;0.75;;;6.00;99.90;;;;;;10525424;28;20039;-47
2021/04/07 08:28:30;;;;;;;1.67;0.45;;;6.10;99.90;;;;;;10527857;28;20032;-48
2021/04/07 08:33:53;;;;;;;12.27;1.35;;;6.20;99.90;;;;;;10527799;28;20040;-48
2021/04/07 08:39:18;;;;;;;13.05;1.85;;;6.30;99.90;;;;;;10524193;28;20048;-48
2021/04/07 08:44:48;;;;;;;3.55;1.45;;;6.40;99.90;;;;;;10523511;28;20030;-48
2021/04/07 08:50:11;;;;;;;7.90;0.77;;;6.50;99.90;;;;;;10522647;28;20040;-48
2021/04/07 08:55:32;;;;;;;7.70;0.65;;;6.40;99.90;;;;;;10518690;28;20127;-48
2021/04/07 09:00:55;;;;;;;5.90;0.70;;;6.50;99.90;;;;;;10502741;28;20197;-48
2021/04/07 09:06:17;;;;;;;11.23;1.42;;;6.60;99.90;;;;;;10468141;28;20484;-48
2021/04/07 09:11:42;;;;;;;8.57;1.67;;;6.80;99.90;;;;;;10479930;28;20471;-49
2021/04/07 09:17:05;;;;;;;10.95;0.77;;;6.80;99.90;;;;;;10479260;28;20389;-49
2021/04/07 09:22:26;;;;;;;4.72;1.08;;;7.00;99.90;;;;;;10480071;28;20043;-49
2021/04/07 09:27:47;;;;;;;5.50;1.17;;;7.30;99.90;;;;;;10478016;28;20294;-48
2021/04/07 09:33:08;;;;;;;2.90;0.52;;;7.30;99.90;;;;;;10478480;28;20041;-49
2021/04/07 09:38:31;;;;;;;9.38;1.30;;;6.80;99.90;;;;;;10477773;28;21077;-49
2021/04/07 09:43:59;;;;;;;3.65;0.93;;;6.40;99.90;;;;;;10470350;28;20101;-48
2021/04/07 09:49:23;;;;;;;8.63;0.65;;;6.30;99.90;;;;;;10480208;28;20036;-48
2021/04/07 09:54:44;;;;;;;2.15;0.68;;;6.90;99.90;;;;;;10477891;28;20028;-48
2021/04/07 10:00:08;;;;;;;3.75;0.70;;;7.70;99.90;;;;;;10481048;28;20036;-48
2021/04/07 10:05:31;;;;;;;1.17;0.57;;;7.60;99.90;;;;;;10473032;28;20050;-48
2021/04/07 10:10:53;;;;;;;7.53;0.82;;;7.40;99.90;;;;;;10476334;28;20042;-48
2021/04/07 10:16:15;;;;;;;1.73;0.85;;;6.90;99.90;;;;;;10461901;28;20044;-48
2021/04/07 10:21:37;;;;;;;1.38;0.43;;;6.50;99.90;;;;;;10479252;28;20037;-48
2021/04/07 10:26:59;;;;;;;8.13;1.38;;;6.50;99.90;;;;;;10481457;28;20036;-48
2021/04/07 10:32:20;;;;;;;5.60;0.50;;;6.40;99.90;;;;;;10483745;28;20769;-49
2021/04/07 10:37:51;;;;;;;1.42;0.40;;;6.00;99.90;;;;;;10475651;28;20585;-48
2021/04/07 10:43:19;;;;;;;5.43;1.90;;;6.10;99.90;;;;;;10485155;28;20048;-48
2021/04/07 10:48:40;;;;;;;1.73;0.50;;;6.40;99.90;;;;;;10479619;28;20384;-48
2021/04/07 10:54:01;;;;;;;2.85;0.30;;;7.10;99.90;;;;;;10489693;28;20040;-49
2021/04/07 10:59:28;;;;;;;5.18;0.50;;;7.20;99.90;;;;;;10488625;28;20085;-48
2021/04/07 11:04:49;;;;;;;3.30;0.70;;;6.90;99.90;;;;;;10485812;28;20040;-48
2021/04/07 11:10:12;;;;;;;5.10;0.52;;;6.80;99.90;;;;;;10484729;28;20043;-48
2021/04/07 11:15:33;;;;;;;2.63;0.73;;;6.80;99.90;;;;;;10487697;28;20054;-48
2021/04/07 11:20:55;;;;;;;2.40;1.27;;;7.00;99.90;;;;;;10486099;28;20517;-48
2021/04/07 11:26:16;;;;;;;0.10;0.10;;;7.30;99.90;;;;;;10487835;28;20488;-49
2021/04/07 11:31:37;;;;;;;3.58;0.73;;;7.60;99.90;;;;;;10486851;28;20132;-48
2021/04/07 11:37:26;;;;;;;5.28;0.40;;;7.90;99.90;;;;;;10483956;28;20051;-48
2021/04/07 11:48:09;;;;;;;1.45;0.60;;;7.60;99.90;;;;;;10480873;28;20393;-50
2021/04/07 11:53:30;;;;;;;3.13;1.33;;;7.80;99.90;;;;;;10484794;28;20054;-48
2021/04/07 11:58:51;;;;;;;2.47;0.45;;;8.20;99.90;;;;;;10476708;28;20431;-48
2021/04/07 12:04:12;;;;;;;1.92;0.30;;;9.10;99.90;;;;;;10520414;27;20082;-48
2021/04/07 12:09:33;;;;;;;0.73;0.40;;;8.80;99.90;;;;;;10518344;28;20035;-48
2021/04/07 12:14:54;;;;;;;3.70;0.38;;;8.10;99.90;;;;;;10518112;27;20047;-48
2021/04/07 12:20:15;;;;;;;1.05;0.32;;;7.80;99.90;;;;;;10521450;28;20070;-48
2021/04/07 12:25:36;;;;;;;0.43;0.32;;;7.90;99.90;;;;;;10517370;28;20396;-47
2021/04/07 12:30:57;;;;;;;4.70;1.17;;;7.70;99.90;;;;;;10504835;28;20028;-48
2021/04/07 12:36:19;;;;;;;1.67;0.38;;;7.40;99.90;;;;;;10517599;28;20743;-48
2021/04/07 12:41:59;;;;;;;1.52;1.10;;;6.90;99.90;;;;;;10519495;27;20060;-48
2021/04/07 12:47:20;;;;;;;1.95;0.47;;;6.60;99.90;;;;;;10525806;28;20040;-48
2021/04/07 12:52:41;;;;;;;5.85;0.50;;;6.60;99.90;;;;;;10516468;28;20135;-48
2021/04/07 12:58:03;;;;;;;5.18;0.50;;;7.10;99.90;;;;;;10496622;27;22788;-48
2021/04/07 13:03:24;;;;;;;1.25;0.22;;;7.30;99.90;;;;;;10517157;28;20044;-48
2021/04/07 13:08:45;;;;;;;3.50;0.45;;;7.50;99.90;;;;;;10509628;28;20541;-48
2021/04/07 13:14:06;;;;;;;2.90;0.40;;;8.90;99.90;;;;;;10518652;28;20399;-48
2021/04/07 13:19:29;;;;;;;1.60;0.52;;;10.40;99.90;;;;;;10520050;27;20040;-48
2021/04/07 13:24:50;;;;;;;3.03;0.30;;;10.40;99.90;;;;;;10514876;28;20056;-48
2021/04/07 13:30:13;;;;;;;3.85;0.38;;;9.20;99.90;;;;;;10519549;28;21014;-48
2021/04/07 13:35:56;;;;;;;3.40;0.70;;;9.00;99.90;;;;;;10523983;28;20039;-48
2021/04/07 13:41:41;;;;;;;2.20;0.45;;;9.90;99.90;;;;;;10518421;28;20074;-48
2021/04/07 13:47:02;;;;;;;7.10;1.25;;;10.70;99.90;;;;;;10523173;28;20050;-48
2021/04/07 13:52:23;;;;;;;1.55;0.32;;;10.50;99.90;;;;;;10501027;28;20493;-47
2021/04/07 13:57:44;;;;;;;1.05;0.20;;;8.80;99.90;;;;;;10524914;28;20061;-47
2021/04/07 14:03:05;;;;;;;2.03;0.20;;;6.90;99.90;;;;;;10525039;27;22928;-48
2021/04/07 14:08:29;;;;;;;1.02;0.20;;;5.70;99.90;;;;;;10532704;27;20036;-48
2021/04/07 14:13:50;;;;;;;4.22;1.38;;;5.40;99.90;;;;;;10529476;28;20112;-48
2021/04/07 14:19:11;;;;;;;5.28;0.45;;;6.30;99.90;;;;;;10534270;28;21995;-48
2021/04/07 14:24:32;;;;;;;1.35;0.55;;;6.60;99.90;;;;;;10531306;27;20039;-49
2021/04/07 14:29:53;;;;;;;6.07;0.65;;;7.20;99.90;;;;;;10532255;27;20036;-48
2021/04/07 14:35:14;;;;;;;5.47;0.50;;;7.20;99.90;;;;;;10523517;27;20032;-48
2021/04/07 14:40:35;;;;;;;0.57;0.22;;;7.30;99.90;;;;;;10530842;28;20039;-48
2021/04/07 14:45:56;;;;;;;1.85;0.50;;;7.20;99.90;;;;;;10526089;27;20140;-48
2021/04/07 14:51:24;;;;;;;0.30;0.20;;;6.70;99.90;;;;;;10529826;27;20040;-48
2021/04/07 14:56:48;;;;;;;1.95;0.25;;;5.80;99.90;;;;;;10527184;27;20054;-47
2021/04/07 15:02:09;;;;;;;0.45;0.20;;;4.70;99.90;;;;;;10534906;28;20043;-48
2021/04/07 15:07:30;;;;;;;0.88;0.20;;;4.50;99.90;;;;;;10530563;28;20453;-48
2021/04/07 15:12:51;;;;;;;1.85;0.20;;;4.80;99.90;;;;;;10526889;28;20476;-48
2021/04/07 15:18:12;;;;;;;1.63;0.20;;;5.30;99.90;;;;;;10524727;28;20043;-48
2021/04/07 15:23:33;;;;;;;6.20;0.30;;;5.60;99.90;;;;;;10523372;28;20050;-48
2021/04/07 15:28:55;;;;;;;0.38;0.10;;;6.20;99.90;;;;;;10524213;28;20704;-48
2021/04/07 15:34:16;;;;;;;0.65;0.30;;;6.50;99.90;;;;;;10523209;28;20119;-48
2021/04/07 15:39:37;;;;;;;1.45;0.40;;;6.60;99.90;;;;;;10525704;28;20044;-48
2021/04/07 15:44:58;;;;;;;5.38;0.20;;;6.60;99.90;;;;;;10519893;28;20035;-48
2021/04/07 15:50:19;;;;;;;3.28;0.30;;;6.60;99.90;;;;;;10524844;28;20059;-48
2021/04/07 15:55:41;;;;;;;3.65;0.20;;;6.50;99.90;;;;;;10506333;28;20594;-48
2021/04/07 16:01:03;;;;;;;0.52;0.10;;;6.40;99.90;;;;;;10504603;28;20143;-48
2021/04/07 16:06:24;;;;;;;8.15;0.35;;;6.40;99.90;;;;;;10486529;28;20147;-48
2021/04/07 16:11:45;;;;;;;5.20;0.30;;;6.40;99.90;;;;;;10482467;28;20028;-48
2021/04/07 16:17:07;;;;;;;1.17;0.32;;;6.50;99.90;;;;;;10482181;28;20048;-48
2021/04/07 16:22:28;;;;;;;0.13;0.10;;;6.40;99.90;;;;;;10476369;28;20115;-48
2021/04/07 16:27:49;;;;;;;0.40;0.10;;;6.20;99.90;;;;;;10461295;28;20043;-48
2021/04/07 16:33:13;;;;;;;0.20;0.00;;;6.10;99.90;;;;;;10461037;28;20430;-48
2021/04/07 16:38:34;;;;;;;1.45;0.25;;;5.50;99.90;;;;;;10455121;28;20045;-48
2021/04/07 16:43:55;;;;;;;3.20;1.38;;;5.30;99.90;;;;;;10443232;28;20169;-48
2021/04/07 16:49:17;;;;;;;1.17;0.20;;;5.00;99.90;;;;;;10437140;28;20476;-48
2021/04/07 16:54:38;;;;;;;1.85;0.13;;;4.90;99.90;;;;;;10457123;28;20075;-48
2021/04/07 16:59:59;;;;;;;0.77;0.15;;;4.80;99.90;;;;;;10462116;28;20052;-48
2021/04/07 17:05:20;;;;;;;1.75;0.20;;;4.90;99.90;;;;;;10471169;28;20109;-48
2021/04/07 17:10:41;;;;;;;0.77;0.35;;;4.90;99.90;;;;;;10466832;28;20097;-48
2021/04/07 17:16:02;;;;;;;1.45;0.43;;;4.90;99.90;;;;;;10459588;28;20574;-48
2021/04/07 17:21:23;;;;;;;2.95;0.47;;;4.80;99.90;;;;;;10467058;28;20063;-48
2021/04/07 17:26:45;;;;;;;0.15;0.10;;;4.80;99.90;;;;;;10463572;28;20117;-47
2021/04/07 17:32:06;;;;;;;5.20;0.20;;;4.90;99.90;;;;;;10448612;28;20059;-48
2021/04/07 17:37:27;;;;;;;0.43;0.15;;;4.80;99.90;;;;;;10461859;28;20244;-48
2021/04/07 17:42:48;;;;;;;4.82;0.40;;;4.70;99.90;;;;;;10461066;28;20032;-48
2021/04/07 17:48:10;;;;;;;0.43;0.13;;;4.40;99.90;;;;;;10462546;28;20036;-48
2021/04/07 17:53:31;;;;;;;0.98;0.25;;;4.20;99.90;;;;;;10458557;28;20051;-48
2021/04/07 17:58:52;;;;;;;2.75;0.20;;;4.00;99.90;;;;;;10459278;28;20079;-48
2021/04/07 18:04:13;;;;;;;3.80;0.82;;;3.80;99.90;;;;;;10441311;28;20102;-48
2021/04/07 18:09:34;;;;;;;0.88;0.35;;;3.80;99.90;;;;;;10444336;28;20373;-48
2021/04/07 18:14:55;;;;;;;0.30;0.10;;;3.70;99.90;;;;;;10450669;28;20333;-48
2021/04/07 18:20:17;;;;;;;0.85;0.10;;;3.80;99.90;;;;;;10444375;28;20423;-48
2021/04/07 18:25:39;;;;;;;8.23;1.55;;;3.80;99.90;;;;;;10443770;28;20077;-48
2021/04/07 18:31:00;;;;;;;2.60;1.02;;;3.90;99.90;;;;;;10450140;28;20024;-48
2021/04/07 18:36:21;;;;;;;5.00;1.63;;;3.90;99.90;;;;;;10446942;28;20573;-48
2021/04/07 18:41:42;;;;;;;0.10;0.10;;;3.70;99.90;;;;;;10451142;28;20086;-48
2021/04/07 18:47:03;;;;;;;0.30;0.20;;;3.70;99.90;;;;;;10453437;28;20040;-48
2021/04/07 18:52:25;;;;;;;2.15;0.05;;;3.60;99.90;;;;;;10459217;28;20033;-48
2021/04/07 18:57:48;;;;;;;1.35;0.40;;;3.80;99.90;;;;;;10458529;28;20058;-48
2021/04/07 19:03:11;;;;;;;0.28;0.10;;;3.70;99.90;;;;;;10454562;28;20436;-48
2021/04/07 19:08:32;;;;;;;0.75;0.30;;;3.80;99.90;;;;;;10452364;28;20041;-48
2021/04/07 19:13:53;;;;;;;10.40;0.45;;;3.70;99.90;;;;;;10453893;28;20301;-48
2021/04/07 19:19:14;;;;;;;0.10;0.10;;;3.60;99.90;;;;;;10454435;28;20094;-48
2021/04/07 19:24:36;;;;;;;0.80;0.32;;;3.60;99.90;;;;;;10455029;28;20031;-48
2021/04/07 19:29:57;;;;;;;3.00;0.30;;;3.60;99.90;;;;;;10454674;28;20322;-48
2021/04/07 19:35:18;;;;;;;1.38;0.20;;;3.40;99.90;;;;;;10456642;28;20040;-48
2021/04/07 19:40:39;;;;;;;0.63;0.17;;;3.30;99.90;;;;;;10456064;28;20102;-48
2021/04/07 19:46:00;;;;;;;8.00;0.50;;;3.30;99.90;;;;;;10449736;28;20044;-47
2021/04/07 19:51:22;;;;;;;0.45;0.10;;;3.30;99.90;;;;;;10457541;28;20052;-48
2021/04/07 19:56:43;;;;;;;1.55;0.40;;;3.30;99.90;;;;;;10458332;28;20208;-48
2021/04/07 20:02:04;;;;;;;2.70;0.30;;;3.30;99.90;;;;;;10477728;28;20040;-48
2021/04/07 20:07:25;;;;;;;0.95;0.25;;;3.20;99.90;;;;;;10496184;28;20031;-48
2021/04/07 20:12:47;;;;;;;4.65;1.17;;;3.20;99.90;;;;;;10491203;28;20130;-48
2021/04/07 20:18:08;;;;;;;0.30;0.13;;;3.20;99.90;;;;;;10503206;28;20289;-48
2021/04/07 20:23:29;;;;;;;0.40;0.13;;;3.10;99.90;;;;;;10489006;28;20039;-48
2021/04/07 20:28:50;;;;;;;3.58;0.30;;;3.00;99.90;;;;;;10497326;28;21433;-48
2021/04/07 20:34:11;;;;;;;7.10;0.47;;;2.90;99.90;;;;;;10494137;28;20419;-48
2021/04/07 20:39:32;;;;;;;1.75;1.25;;;3.00;99.90;;;;;;10499912;27;22000;-48
2021/04/07 20:44:53;;;;;;;0.82;0.38;;;3.10;99.90;;;;;;10499219;28;20562;-48
2021/04/07 20:50:14;;;;;;;0.17;0.17;;;3.20;99.90;;;;;;10498230;27;20139;-48
2021/04/07 20:55:39;;;;;;;0.47;0.40;;;3.30;99.90;;;;;;10499058;28;20070;-48
2021/04/07 21:01:00;;;;;;;3.35;2.70;;;3.20;99.90;;;;;;10504174;28;20052;-48
2021/04/07 21:06:21;;;;;;;1.55;0.28;;;3.20;99.90;;;;;;10478156;28;20072;-48
2021/04/07 21:11:42;;;;;;;0.32;0.10;;;3.10;99.90;;;;;;10476785;28;20426;-48
2021/04/07 21:17:03;;;;;;;4.18;0.35;;;3.00;99.90;;;;;;10473904;28;20044;-48
2021/04/07 21:22:24;;;;;;;2.72;0.90;;;3.00;99.90;;;;;;10470601;28;20561;-48
2021/04/07 21:27:45;;;;;;;0.30;0.20;;;3.00;99.90;;;;;;10477195;28;20136;-49
2021/04/07 21:33:06;;;;;;;0.65;0.22;;;3.10;99.90;;;;;;10480751;28;20039;-48
2021/04/07 21:38:27;;;;;;;3.47;0.85;;;3.30;99.90;;;;;;10473469;28;20062;-48
2021/04/07 21:43:48;;;;;;;1.50;0.30;;;3.30;99.90;;;;;;10480407;28;20100;-48
2021/04/07 21:49:09;;;;;;;0.00;0.00;;;3.20;99.90;;;;;;10478230;28;20783;-48
2021/04/07 21:54:30;;;;;;;0.52;0.20;;;3.20;99.90;;;;;;10459907;28;20554;-48
2021/04/07 21:59:51;;;;;;;0.10;0.10;;;3.20;99.90;;;;;;10480517;28;20303;-48
2021/04/07 22:05:13;;;;;;;1.65;0.82;;;3.10;99.90;;;;;;10483118;28;20415;-48
2021/04/07 22:10:39;;;;;;;1.98;0.50;;;3.00;99.90;;;;;;10481762;28;20040;-48
2021/04/07 22:16:00;;;;;;;1.85;0.57;;;2.80;99.90;;;;;;10476042;28;20075;-48
2021/04/07 22:21:24;;;;;;;0.50;0.32;;;2.60;99.90;;;;;;10484539;28;20487;-48
2021/04/07 22:26:46;;;;;;;0.43;0.10;;;2.60;99.90;;;;;;10491719;28;20158;-48
2021/04/07 22:32:07;;;;;;;0.90;0.15;;;2.50;99.90;;;;;;10482479;28;20040;-48
2021/04/07 22:37:28;;;;;;;0.38;0.17;;;2.40;99.90;;;;;;10490470;28;20059;-48
2021/04/07 22:42:49;;;;;;;0.60;0.20;;;2.40;99.90;;;;;;10484008;28;20048;-48
2021/04/07 22:48:11;;;;;;;1.55;0.65;;;2.30;99.90;;;;;;10485285;28;20036;-48
2021/04/07 22:53:32;;;;;;;4.43;0.20;;;2.30;99.90;;;;;;10480876;28;21122;-48
2021/04/07 22:58:53;;;;;;;0.73;0.20;;;2.30;99.90;;;;;;10484677;28;20075;-47
2021/04/07 23:04:14;;;;;;;1.65;0.30;;;2.30;99.90;;;;;;10484519;28;20684;-48
2021/04/07 23:09:35;;;;;;;0.90;0.52;;;2.30;99.90;;;;;;10487838;28;20117;-48
2021/04/07 23:14:56;;;;;;;1.65;0.25;;;2.40;99.90;;;;;;10491953;28;20106;-48
2021/04/07 23:20:17;;;;;;;0.40;0.20;;;2.30;99.90;;;;;;10490820;28;20074;-47
2021/04/07 23:25:38;;;;;;;1.90;0.10;;;2.40;99.90;;;;;;10486478;28;20032;-47
2021/04/07 23:30:59;;;;;;;0.10;0.00;;;2.50;99.90;;;;;;10487639;28;20040;-48
2021/04/07 23:36:20;;;;;;;0.00;0.00;;;2.70;99.90;;;;;;10487225;28;20067;-48
2021/04/07 23:41:41;;;;;;;2.63;0.20;;;2.80;99.90;;;;;;10474077;28;20043;-47
2021/04/07 23:47:02;;;;;;;0.10;0.10;;;3.00;99.90;;;;;;10480545;28;20110;-47
2021/04/07 23:52:24;;;;;;;1.60;0.20;;;3.10;99.90;;;;;;10482138;28;20119;-47
2021/04/07 23:57:45;;;;;;;7.57;0.35;;;3.10;99.90;;;;;;10486855;28;20044;-48
